Terminal Aerodrome Forecast
Issued by NWS

Home | Current Version | Previous Version | Text Only | Print | Product List | Glossary On
Versions: 1 2 3 4 5 6 7 8 9 10 11 12 13 14
000
FTUS43 KIND 040500
TAFLAF
TAF
KLAF 040520Z 0406/0506 20007KT P6SM BKN100
     FM041100 22008KT 6SM -SHRA BR VCTS BKN060CB
     FM041500 24011KT P6SM VCTS BKN050CB
     FM050000 19004KT P6SM SCT050 BKN100
      AMD LTD TO CLD VIS AND WIND TIL 041300=

USA.gov is the U.S. government's official web portal to all federal, state and local government web resources and services.